sensor_id;sensor_type;location;lat;lon;timestamp;temperature;humidity
5940;DHT22;2995;-31.998;115.906;2023-07-24T00:01:01;9.80;99.90
5940;DHT22;2995;-31.998;115.906;2023-07-24T00:03:32;9.90;99.90
5940;DHT22;2995;-31.998;115.906;2023-07-24T00:06:03;10.10;99.90
5940;DHT22;2995;-31.998;115.906;2023-07-24T00:08:34;10.30;99.90
5940;DHT22;2995;-31.998;115.906;2023-07-24T00:11:08;10.50;99.90
5940;DHT22;2995;-31.998;115.906;2023-07-24T00:13:40;10.70;99.90
5940;DHT22;2995;-31.998;115.906;2023-07-24T00:16:13;10.80;99.90
5940;DHT22;2995;-31.998;115.906;2023-07-24T00:18:44;11.00;99.90
5940;DHT22;2995;-31.998;115.906;2023-07-24T00:21:15;11.20;99.90
5940;DHT22;2995;-31.998;115.906;2023-07-24T00:23:46;11.20;99.90
5940;DHT22;2995;-31.998;115.906;2023-07-24T00:26:18;11.30;99.90
5940;DHT22;2995;-31.998;115.906;2023-07-24T00:28:49;11.40;99.90
5940;DHT22;2995;-31.998;115.906;2023-07-24T00:31:22;11.60;99.90
5940;DHT22;2995;-31.998;115.906;2023-07-24T00:33:53;11.80;99.90
5940;DHT22;2995;-31.998;115.906;2023-07-24T00:36:24;11.80;99.90
5940;DHT22;2995;-31.998;115.906;2023-07-24T00:38:56;11.90;99.90
5940;DHT22;2995;-31.998;115.906;2023-07-24T00:41:27;12.00;99.90
5940;DHT22;2995;-31.998;115.906;2023-07-24T00:43:58;12.20;99.90
5940;DHT22;2995;-31.998;115.906;2023-07-24T00:46:32;12.30;99.90
5940;DHT22;2995;-31.998;115.906;2023-07-24T00:49:05;12.30;99.90
5940;DHT22;2995;-31.998;115.906;2023-07-24T00:51:36;12.40;99.90
5940;DHT22;2995;-31.998;115.906;2023-07-24T00:54:08;12.50;99.90
5940;DHT22;2995;-31.998;115.906;2023-07-24T00:56:39;12.70;99.90
5940;DHT22;2995;-31.998;115.906;2023-07-24T00:59:11;12.70;99.90
5940;DHT22;2995;-31.998;115.906;2023-07-24T01:01:44;12.80;99.90
5940;DHT22;2995;-31.998;115.906;2023-07-24T01:04:16;12.90;99.90
5940;DHT22;2995;-31.998;115.906;2023-07-24T01:06:47;13.00;99.90
5940;DHT22;2995;-31.998;115.906;2023-07-24T01:09:18;13.10;99.90
5940;DHT22;2995;-31.998;115.906;2023-07-24T01:11:54;13.20;99.90
5940;DHT22;2995;-31.998;115.906;2023-07-24T01:14:31;13.40;99.90
5940;DHT22;2995;-31.998;115.906;2023-07-24T01:17:07;13.50;99.90
5940;DHT22;2995;-31.998;115.906;2023-07-24T01:19:40;13.70;99.90
5940;DHT22;2995;-31.998;115.906;2023-07-24T01:22:19;13.70;99.90
5940;DHT22;2995;-31.998;115.906;2023-07-24T01:25:14;13.70;99.90
5940;DHT22;2995;-31.998;115.906;2023-07-24T01:27:51;13.90;99.90
5940;DHT22;2995;-31.998;115.906;2023-07-24T01:30:22;14.10;99.90
5940;DHT22;2995;-31.998;115.906;2023-07-24T01:32:54;14.20;99.90
5940;DHT22;2995;-31.998;115.906;2023-07-24T01:35:26;14.30;99.90
5940;DHT22;2995;-31.998;115.906;2023-07-24T01:37:58;14.30;99.90
5940;DHT22;2995;-31.998;115.906;2023-07-24T01:40:31;14.50;99.90
5940;DHT22;2995;-31.998;115.906;2023-07-24T01:43:04;14.60;99.90
5940;DHT22;2995;-31.998;115.906;2023-07-24T01:45:36;14.70;99.90
5940;DHT22;2995;-31.998;115.906;2023-07-24T01:48:07;14.80;99.90
5940;DHT22;2995;-31.998;115.906;2023-07-24T01:50:38;14.90;99.90
5940;DHT22;2995;-31.998;115.906;2023-07-24T01:53:09;15.00;99.90
5940;DHT22;2995;-31.998;115.906;2023-07-24T01:55:41;15.10;99.90
5940;DHT22;2995;-31.998;115.906;2023-07-24T01:58:14;15.20;99.90
5940;DHT22;2995;-31.998;115.906;2023-07-24T02:00:45;15.30;99.90
5940;DHT22;2995;-31.998;115.906;2023-07-24T02:03:16;15.40;99.90
5940;DHT22;2995;-31.998;115.906;2023-07-24T02:05:51;15.50;99.90
5940;DHT22;2995;-31.998;115.906;2023-07-24T02:08:22;15.70;99.90
5940;DHT22;2995;-31.998;115.906;2023-07-24T02:10:53;15.80;99.90
5940;DHT22;2995;-31.998;115.906;2023-07-24T02:13:30;15.90;99.90
5940;DHT22;2995;-31.998;115.906;2023-07-24T02:16:01;15.90;99.90
5940;DHT22;2995;-31.998;115.906;2023-07-24T02:18:32;16.00;99.90
5940;DHT22;2995;-31.998;115.906;2023-07-24T02:21:04;16.20;99.90
5940;DHT22;2995;-31.998;115.906;2023-07-24T02:23:35;16.30;99.90
5940;DHT22;2995;-31.998;115.906;2023-07-24T02:26:07;16.40;99.90
5940;DHT22;2995;-31.998;115.906;2023-07-24T02:28:41;16.50;99.90
5940;DHT22;2995;-31.998;115.906;2023-07-24T02:31:12;16.60;99.90
5940;DHT22;2995;-31.998;115.906;2023-07-24T02:33:41;16.70;99.90
5940;DHT22;2995;-31.998;115.906;2023-07-24T02:36:13;16.80;99.90
5940;DHT22;2995;-31.998;115.906;2023-07-24T02:38:44;16.90;99.90
5940;DHT22;2995;-31.998;115.906;2023-07-24T02:41:15;17.10;99.90
5940;DHT22;2995;-31.998;115.906;2023-07-24T02:43:48;17.20;99.90
5940;DHT22;2995;-31.998;115.906;2023-07-24T02:46:20;17.30;99.90
5940;DHT22;2995;-31.998;115.906;2023-07-24T02:48:52;17.30;99.90
5940;DHT22;2995;-31.998;115.906;2023-07-24T02:51:24;17.50;99.90
5940;DHT22;2995;-31.998;115.906;2023-07-24T02:53:55;17.60;99.90
5940;DHT22;2995;-31.998;115.906;2023-07-24T02:56:26;17.70;99.90
5940;DHT22;2995;-31.998;115.906;2023-07-24T02:59:00;17.70;99.90
5940;DHT22;2995;-31.998;115.906;2023-07-24T03:01:32;17.80;99.90
5940;DHT22;2995;-31.998;115.906;2023-07-24T03:04:03;17.90;99.90
5940;DHT22;2995;-31.998;115.906;2023-07-24T03:06:34;17.90;99.90
5940;DHT22;2995;-31.998;115.906;2023-07-24T03:09:05;18.00;99.90
5940;DHT22;2995;-31.998;115.906;2023-07-24T03:11:37;18.10;99.90
5940;DHT22;2995;-31.998;115.906;2023-07-24T03:14:10;18.20;99.90
5940;DHT22;2995;-31.998;115.906;2023-07-24T03:16:41;18.30;99.90
5940;DHT22;2995;-31.998;115.906;2023-07-24T03:19:12;18.30;99.90
5940;DHT22;2995;-31.998;115.906;2023-07-24T03:21:45;18.40;99.90
5940;DHT22;2995;-31.998;115.906;2023-07-24T03:24:16;18.40;99.90
5940;DHT22;2995;-31.998;115.906;2023-07-24T03:26:48;18.40;99.90
5940;DHT22;2995;-31.998;115.906;2023-07-24T03:29:21;18.40;99.90
5940;DHT22;2995;-31.998;115.906;2023-07-24T03:31:52;18.50;99.90
5940;DHT22;2995;-31.998;115.906;2023-07-24T03:34:23;18.60;99.90
5940;DHT22;2995;-31.998;115.906;2023-07-24T03:36:54;18.70;99.90
5940;DHT22;2995;-31.998;115.906;2023-07-24T03:39:26;18.70;99.90
5940;DHT22;2995;-31.998;115.906;2023-07-24T03:41:57;18.70;99.90
5940;DHT22;2995;-31.998;115.906;2023-07-24T03:44:30;18.80;99.90
5940;DHT22;2995;-31.998;115.906;2023-07-24T03:47:02;18.80;99.90
5940;DHT22;2995;-31.998;115.906;2023-07-24T03:49:33;18.90;99.90
5940;DHT22;2995;-31.998;115.906;2023-07-24T03:52:05;19.00;99.90
5940;DHT22;2995;-31.998;115.906;2023-07-24T03:54:36;19.00;99.90
5940;DHT22;2995;-31.998;115.906;2023-07-24T03:57:08;19.00;99.90
5940;DHT22;2995;-31.998;115.906;2023-07-24T03:59:41;19.10;99.90
5940;DHT22;2995;-31.998;115.906;2023-07-24T04:02:12;19.10;99.90
5940;DHT22;2995;-31.998;115.906;2023-07-24T04:04:43;19.20;99.90
5940;DHT22;2995;-31.998;115.906;2023-07-24T04:07:15;19.20;99.90
5940;DHT22;2995;-31.998;115.906;2023-07-24T04:09:46;19.20;99.90
5940;DHT22;2995;-31.998;115.906;2023-07-24T04:12:17;19.30;99.90
5940;DHT22;2995;-31.998;115.906;2023-07-24T04:14:50;19.30;99.90
5940;DHT22;2995;-31.998;115.906;2023-07-24T04:17:21;19.30;99.90
5940;DHT22;2995;-31.998;115.906;2023-07-24T04:19:53;19.30;99.90
5940;DHT22;2995;-31.998;115.906;2023-07-24T04:22:24;19.40;99.90
5940;DHT22;2995;-31.998;115.906;2023-07-24T04:24:56;19.40;99.90
5940;DHT22;2995;-31.998;115.906;2023-07-24T04:27:27;19.40;99.90
5940;DHT22;2995;-31.998;115.906;2023-07-24T04:30:00;19.50;99.90
5940;DHT22;2995;-31.998;115.906;2023-07-24T04:32:32;19.60;99.90
5940;DHT22;2995;-31.998;115.906;2023-07-24T04:35:03;19.70;99.90
5940;DHT22;2995;-31.998;115.906;2023-07-24T04:37:35;19.80;99.90
5940;DHT22;2995;-31.998;115.906;2023-07-24T04:40:07;19.70;99.90
5940;DHT22;2995;-31.998;115.906;2023-07-24T04:42:38;19.80;99.90
5940;DHT22;2995;-31.998;115.906;2023-07-24T04:45:12;19.80;99.90
5940;DHT22;2995;-31.998;115.906;2023-07-24T04:47:43;19.70;99.90
5940;DHT22;2995;-31.998;115.906;2023-07-24T04:50:14;19.70;99.90
5940;DHT22;2995;-31.998;115.906;2023-07-24T04:52:45;19.70;99.90
5940;DHT22;2995;-31.998;115.906;2023-07-24T04:55:17;19.70;99.90
5940;DHT22;2995;-31.998;115.906;2023-07-24T04:57:48;19.80;99.90
5940;DHT22;2995;-31.998;115.906;2023-07-24T05:00:22;19.80;99.90
5940;DHT22;2995;-31.998;115.906;2023-07-24T05:02:54;19.80;99.90
5940;DHT22;2995;-31.998;115.906;2023-07-24T05:05:25;19.80;99.90
5940;DHT22;2995;-31.998;115.906;2023-07-24T05:07:57;19.90;99.90
5940;DHT22;2995;-31.998;115.906;2023-07-24T05:10:28;19.90;99.90
5940;DHT22;2995;-31.998;115.906;2023-07-24T05:12:59;19.90;99.90
5940;DHT22;2995;-31.998;115.906;2023-07-24T05:15:33;19.90;99.90
5940;DHT22;2995;-31.998;115.906;2023-07-24T05:18:04;19.90;99.90
5940;DHT22;2995;-31.998;115.906;2023-07-24T05:20:35;19.90;99.90
5940;DHT22;2995;-31.998;115.906;2023-07-24T05:23:06;20.00;99.90
5940;DHT22;2995;-31.998;115.906;2023-07-24T05:25:37;20.00;99.90
5940;DHT22;2995;-31.998;115.906;2023-07-24T05:28:09;20.00;99.90
5940;DHT22;2995;-31.998;115.906;2023-07-24T05:30:42;20.10;99.90
5940;DHT22;2995;-31.998;115.906;2023-07-24T05:33:13;20.10;99.90
5940;DHT22;2995;-31.998;115.906;2023-07-24T05:35:44;20.10;99.90
5940;DHT22;2995;-31.998;115.906;2023-07-24T05:38:16;20.10;99.90
5940;DHT22;2995;-31.998;115.906;2023-07-24T05:40:47;20.10;99.90
5940;DHT22;2995;-31.998;115.906;2023-07-24T05:43:24;20.10;99.90
5940;DHT22;2995;-31.998;115.906;2023-07-24T05:45:58;20.20;99.90
5940;DHT22;2995;-31.998;115.906;2023-07-24T05:48:29;20.20;99.90
5940;DHT22;2995;-31.998;115.906;2023-07-24T05:51:01;20.10;99.90
5940;DHT22;2995;-31.998;115.906;2023-07-24T05:53:32;20.20;99.90
5940;DHT22;2995;-31.998;115.906;2023-07-24T05:56:04;20.20;99.90
5940;DHT22;2995;-31.998;115.906;2023-07-24T05:58:35;20.20;99.90
5940;DHT22;2995;-31.998;115.906;2023-07-24T06:01:08;20.30;99.90
5940;DHT22;2995;-31.998;115.906;2023-07-24T06:03:39;20.40;99.90
5940;DHT22;2995;-31.998;115.906;2023-07-24T06:06:11;20.40;99.90
5940;DHT22;2995;-31.998;115.906;2023-07-24T06:08:42;20.40;99.90
5940;DHT22;2995;-31.998;115.906;2023-07-24T06:11:15;20.40;99.90
5940;DHT22;2995;-31.998;115.906;2023-07-24T06:13:46;20.40;99.90
5940;DHT22;2995;-31.998;115.906;2023-07-24T06:16:19;20.40;99.90
5940;DHT22;2995;-31.998;115.906;2023-07-24T06:18:50;20.30;99.90
5940;DHT22;2995;-31.998;115.906;2023-07-24T06:21:22;20.40;99.90
5940;DHT22;2995;-31.998;115.906;2023-07-24T06:23:53;20.50;99.90
5940;DHT22;2995;-31.998;115.906;2023-07-24T06:26:24;20.40;99.90
5940;DHT22;2995;-31.998;115.906;2023-07-24T06:28:55;20.40;99.90
5940;DHT22;2995;-31.998;115.906;2023-07-24T06:31:28;20.40;99.90
5940;DHT22;2995;-31.998;115.906;2023-07-24T06:34:00;20.40;99.90
5940;DHT22;2995;-31.998;115.906;2023-07-24T06:36:31;20.30;99.90
5940;DHT22;2995;-31.998;115.906;2023-07-24T06:39:02;20.40;99.90
5940;DHT22;2995;-31.998;115.906;2023-07-24T06:41:33;20.40;99.90
5940;DHT22;2995;-31.998;115.906;2023-07-24T06:44:05;20.30;99.90
5940;DHT22;2995;-31.998;115.906;2023-07-24T06:46:38;20.30;99.90
5940;DHT22;2995;-31.998;115.906;2023-07-24T06:49:09;20.40;99.90
5940;DHT22;2995;-31.998;115.906;2023-07-24T06:51:41;20.30;99.90
5940;DHT22;2995;-31.998;115.906;2023-07-24T06:54:12;20.40;99.90
5940;DHT22;2995;-31.998;115.906;2023-07-24T06:56:43;20.40;99.90
5940;DHT22;2995;-31.998;115.906;2023-07-24T06:59:14;20.40;99.90
5940;DHT22;2995;-31.998;115.906;2023-07-24T07:01:48;20.30;99.90
5940;DHT22;2995;-31.998;115.906;2023-07-24T07:04:19;20.20;99.90
5940;DHT22;2995;-31.998;115.906;2023-07-24T07:06:50;20.20;99.90
5940;DHT22;2995;-31.998;115.906;2023-07-24T07:09:21;20.20;99.90
5940;DHT22;2995;-31.998;115.906;2023-07-24T07:11:52;20.10;99.90
5940;DHT22;2995;-31.998;115.906;2023-07-24T07:14:24;20.20;99.90
5940;DHT22;2995;-31.998;115.906;2023-07-24T07:16:57;20.20;99.90
5940;DHT22;2995;-31.998;115.906;2023-07-24T07:19:29;20.20;99.90
5940;DHT22;2995;-31.998;115.906;2023-07-24T07:22:00;20.20;99.90
5940;DHT22;2995;-31.998;115.906;2023-07-24T07:24:31;20.20;99.90
5940;DHT22;2995;-31.998;115.906;2023-07-24T07:27:02;20.10;99.90
5940;DHT22;2995;-31.998;115.906;2023-07-24T07:29:34;20.10;99.90
5940;DHT22;2995;-31.998;115.906;2023-07-24T07:32:08;20.00;99.90
5940;DHT22;2995;-31.998;115.906;2023-07-24T07:34:39;20.10;99.90
5940;DHT22;2995;-31.998;115.906;2023-07-24T07:37:11;19.90;99.90
5940;DHT22;2995;-31.998;115.906;2023-07-24T07:39:42;20.00;99.90
5940;DHT22;2995;-31.998;115.906;2023-07-24T07:42:13;20.00;99.90
5940;DHT22;2995;-31.998;115.906;2023-07-24T07:44:44;19.90;99.90
5940;DHT22;2995;-31.998;115.906;2023-07-24T07:47:17;20.00;99.90
5940;DHT22;2995;-31.998;115.906;2023-07-24T07:49:49;20.00;99.90
5940;DHT22;2995;-31.998;115.906;2023-07-24T07:52:20;19.90;99.90
5940;DHT22;2995;-31.998;115.906;2023-07-24T07:54:51;20.00;99.90
5940;DHT22;2995;-31.998;115.906;2023-07-24T07:57:23;19.90;99.90
5940;DHT22;2995;-31.998;115.906;2023-07-24T07:59:54;19.90;99.90
5940;DHT22;2995;-31.998;115.906;2023-07-24T08:02:27;19.90;99.90
5940;DHT22;2995;-31.998;115.906;2023-07-24T08:04:58;19.90;99.90
5940;DHT22;2995;-31.998;115.906;2023-07-24T08:07:31;19.90;99.90
5940;DHT22;2995;-31.998;115.906;2023-07-24T08:10:02;20.00;99.90
5940;DHT22;2995;-31.998;115.906;2023-07-24T08:12:34;19.90;99.90
5940;DHT22;2995;-31.998;115.906;2023-07-24T08:15:06;19.90;99.90
5940;DHT22;2995;-31.998;115.906;2023-07-24T08:17:40;19.90;99.90
5940;DHT22;2995;-31.998;115.906;2023-07-24T08:20:11;19.90;99.90
5940;DHT22;2995;-31.998;115.906;2023-07-24T08:22:43;19.90;99.90
5940;DHT22;2995;-31.998;115.906;2023-07-24T08:25:14;19.80;99.90
5940;DHT22;2995;-31.998;115.906;2023-07-24T08:27:45;19.90;99.90
5940;DHT22;2995;-31.998;115.906;2023-07-24T08:30:17;19.90;99.90
5940;DHT22;2995;-31.998;115.906;2023-07-24T08:32:50;19.80;99.90
5940;DHT22;2995;-31.998;115.906;2023-07-24T08:35:22;19.90;99.90
5940;DHT22;2995;-31.998;115.906;2023-07-24T08:37:53;19.80;99.90
5940;DHT22;2995;-31.998;115.906;2023-07-24T08:40:24;19.80;99.90
5940;DHT22;2995;-31.998;115.906;2023-07-24T08:42:55;19.80;99.90
5940;DHT22;2995;-31.998;115.906;2023-07-24T08:45:27;19.80;99.90
5940;DHT22;2995;-31.998;115.906;2023-07-24T08:48:01;19.60;99.90
5940;DHT22;2995;-31.998;115.906;2023-07-24T08:50:32;19.50;99.90
5940;DHT22;2995;-31.998;115.906;2023-07-24T08:53:04;19.50;99.90
5940;DHT22;2995;-31.998;115.906;2023-07-24T08:55:35;19.50;99.90
5940;DHT22;2995;-31.998;115.906;2023-07-24T08:58:07;19.50;99.90
5940;DHT22;2995;-31.998;115.906;2023-07-24T09:00:39;19.40;99.90
5940;DHT22;2995;-31.998;115.906;2023-07-24T09:03:13;19.30;99.90
5940;DHT22;2995;-31.998;115.906;2023-07-24T09:05:44;19.20;99.90
5940;DHT22;2995;-31.998;115.906;2023-07-24T09:08:15;19.20;99.90
5940;DHT22;2995;-31.998;115.906;2023-07-24T09:10:51;19.30;99.90
5940;DHT22;2995;-31.998;115.906;2023-07-24T09:13:24;19.30;99.90
5940;DHT22;2995;-31.998;115.906;2023-07-24T09:15:55;19.30;99.90
5940;DHT22;2995;-31.998;115.906;2023-07-24T09:18:39;19.20;99.90
5940;DHT22;2995;-31.998;115.906;2023-07-24T09:21:11;19.10;99.90
5940;DHT22;2995;-31.998;115.906;2023-07-24T09:23:42;19.10;99.90
5940;DHT22;2995;-31.998;115.906;2023-07-24T09:26:13;18.90;99.90
5940;DHT22;2995;-31.998;115.906;2023-07-24T09:28:53;18.80;99.90
5940;DHT22;2995;-31.998;115.906;2023-07-24T09:31:35;18.80;99.90
5940;DHT22;2995;-31.998;115.906;2023-07-24T09:34:15;18.60;99.90
5940;DHT22;2995;-31.998;115.906;2023-07-24T09:36:47;18.50;99.90
5940;DHT22;2995;-31.998;115.906;2023-07-24T09:39:24;18.50;99.90
5940;DHT22;2995;-31.998;115.906;2023-07-24T09:42:03;18.20;99.90
5940;DHT22;2995;-31.998;115.906;2023-07-24T09:44:35;18.10;99.90
5940;DHT22;2995;-31.998;115.906;2023-07-24T09:47:07;17.80;99.90
5940;DHT22;2995;-31.998;115.906;2023-07-24T09:49:40;17.70;99.90
5940;DHT22;2995;-31.998;115.906;2023-07-24T09:52:12;17.50;99.90
5940;DHT22;2995;-31.998;115.906;2023-07-24T09:54:51;17.40;99.90
5940;DHT22;2995;-31.998;115.906;2023-07-24T09:57:24;17.20;99.90
5940;DHT22;2995;-31.998;115.906;2023-07-24T09:59:57;17.20;99.90
5940;DHT22;2995;-31.998;115.906;2023-07-24T10:02:30;17.10;99.90
5940;DHT22;2995;-31.998;115.906;2023-07-24T10:05:03;16.90;99.90
5940;DHT22;2995;-31.998;115.906;2023-07-24T10:07:36;16.70;99.90
5940;DHT22;2995;-31.998;115.906;2023-07-24T10:10:08;16.50;99.90
5940;DHT22;2995;-31.998;115.906;2023-07-24T10:12:40;16.50;99.90
5940;DHT22;2995;-31.998;115.906;2023-07-24T10:15:11;16.30;99.90
5940;DHT22;2995;-31.998;115.906;2023-07-24T10:17:43;16.20;99.90
5940;DHT22;2995;-31.998;115.906;2023-07-24T10:20:17;16.10;99.90
5940;DHT22;2995;-31.998;115.906;2023-07-24T10:22:49;16.00;99.90
5940;DHT22;2995;-31.998;115.906;2023-07-24T10:25:30;15.80;99.90
5940;DHT22;2995;-31.998;115.906;2023-07-24T10:28:05;15.70;99.90
5940;DHT22;2995;-31.998;115.906;2023-07-24T10:30:39;15.70;99.90
5940;DHT22;2995;-31.998;115.906;2023-07-24T10:33:12;15.60;99.90
5940;DHT22;2995;-31.998;115.906;2023-07-24T10:35:46;15.50;99.90
5940;DHT22;2995;-31.998;115.906;2023-07-24T10:38:19;15.40;99.90
5940;DHT22;2995;-31.998;115.906;2023-07-24T10:41:02;15.30;99.90
5940;DHT22;2995;-31.998;115.906;2023-07-24T10:43:42;15.20;99.90
5940;DHT22;2995;-31.998;115.906;2023-07-24T10:46:14;15.00;99.90
5940;DHT22;2995;-31.998;115.906;2023-07-24T10:48:46;14.90;99.90
5940;DHT22;2995;-31.998;115.906;2023-07-24T10:51:20;14.80;99.90
5940;DHT22;2995;-31.998;115.906;2023-07-24T10:53:52;14.90;99.90
5940;DHT22;2995;-31.998;115.906;2023-07-24T10:56:23;14.70;99.90
5940;DHT22;2995;-31.998;115.906;2023-07-24T10:58:54;14.60;99.90
5940;DHT22;2995;-31.998;115.906;2023-07-24T11:01:26;14.50;99.90
5940;DHT22;2995;-31.998;115.906;2023-07-24T11:03:57;14.50;99.90
5940;DHT22;2995;-31.998;115.906;2023-07-24T11:06:31;14.50;99.90
5940;DHT22;2995;-31.998;115.906;2023-07-24T11:09:02;14.50;99.90
5940;DHT22;2995;-31.998;115.906;2023-07-24T11:11:34;14.40;99.90
5940;DHT22;2995;-31.998;115.906;2023-07-24T11:14:12;14.20;99.90
5940;DHT22;2995;-31.998;115.906;2023-07-24T11:16:50;14.10;99.90
5940;DHT22;2995;-31.998;115.906;2023-07-24T11:19:24;14.00;99.90
5940;DHT22;2995;-31.998;115.906;2023-07-24T11:21:58;13.90;99.90
5940;DHT22;2995;-31.998;115.906;2023-07-24T11:24:31;13.90;99.90
5940;DHT22;2995;-31.998;115.906;2023-07-24T11:27:10;13.90;99.90
5940;DHT22;2995;-31.998;115.906;2023-07-24T11:29:47;13.80;99.90
5940;DHT22;2995;-31.998;115.906;2023-07-24T11:32:22;13.70;99.90
5940;DHT22;2995;-31.998;115.906;2023-07-24T11:34:53;13.80;99.90
5940;DHT22;2995;-31.998;115.906;2023-07-24T11:37:27;13.60;99.90
5940;DHT22;2995;-31.998;115.906;2023-07-24T11:39:59;13.60;99.90
5940;DHT22;2995;-31.998;115.906;2023-07-24T11:42:32;13.50;99.90
5940;DHT22;2995;-31.998;115.906;2023-07-24T11:45:04;13.50;99.90
5940;DHT22;2995;-31.998;115.906;2023-07-24T11:47:43;13.60;99.90
5940;DHT22;2995;-31.998;115.906;2023-07-24T11:50:14;13.70;99.90
5940;DHT22;2995;-31.998;115.906;2023-07-24T11:52:49;13.60;99.90
5940;DHT22;2995;-31.998;115.906;2023-07-24T11:55:30;13.70;99.90
5940;DHT22;2995;-31.998;115.906;2023-07-24T11:58:02;13.70;99.90
5940;DHT22;2995;-31.998;115.906;2023-07-24T12:00:34;13.80;99.90
5940;DHT22;2995;-31.998;115.906;2023-07-24T12:03:06;13.80;99.90
5940;DHT22;2995;-31.998;115.906;2023-07-24T12:05:41;13.80;99.90
5940;DHT22;2995;-31.998;115.906;2023-07-24T12:08:15;13.80;99.90
5940;DHT22;2995;-31.998;115.906;2023-07-24T12:10:47;13.80;99.90
5940;DHT22;2995;-31.998;115.906;2023-07-24T12:13:18;13.80;99.90
5940;DHT22;2995;-31.998;115.906;2023-07-24T12:15:49;13.70;99.90
5940;DHT22;2995;-31.998;115.906;2023-07-24T12:18:21;13.70;99.90
5940;DHT22;2995;-31.998;115.906;2023-07-24T12:20:52;13.70;99.90
5940;DHT22;2995;-31.998;115.906;2023-07-24T12:23:25;13.60;99.90
5940;DHT22;2995;-31.998;115.906;2023-07-24T12:25:56;13.70;99.90
5940;DHT22;2995;-31.998;115.906;2023-07-24T12:28:27;13.70;99.90
5940;DHT22;2995;-31.998;115.906;2023-07-24T12:30:59;13.60;99.90
5940;DHT22;2995;-31.998;115.906;2023-07-24T12:33:30;13.60;99.90
5940;DHT22;2995;-31.998;115.906;2023-07-24T12:36:01;13.70;99.90
5940;DHT22;2995;-31.998;115.906;2023-07-24T12:38:34;13.60;99.90
5940;DHT22;2995;-31.998;115.906;2023-07-24T12:41:05;13.60;99.90
5940;DHT22;2995;-31.998;115.906;2023-07-24T12:43:37;13.60;99.90
5940;DHT22;2995;-31.998;115.906;2023-07-24T12:46:08;13.60;99.90
5940;DHT22;2995;-31.998;115.906;2023-07-24T12:48:39;13.60;99.90
5940;DHT22;2995;-31.998;115.906;2023-07-24T12:51:11;13.70;99.90
5940;DHT22;2995;-31.998;115.906;2023-07-24T12:53:44;13.70;99.90
5940;DHT22;2995;-31.998;115.906;2023-07-24T12:56:15;13.80;99.90
5940;DHT22;2995;-31.998;115.906;2023-07-24T12:58:46;13.80;99.90
5940;DHT22;2995;-31.998;115.906;2023-07-24T13:01:17;14.00;99.90
5940;DHT22;2995;-31.998;115.906;2023-07-24T13:03:49;14.00;99.90
5940;DHT22;2995;-31.998;115.906;2023-07-24T13:06:21;13.90;99.90
5940;DHT22;2995;-31.998;115.906;2023-07-24T13:08:55;13.80;99.90
5940;DHT22;2995;-31.998;115.906;2023-07-24T13:11:26;13.80;99.90
5940;DHT22;2995;-31.998;115.906;2023-07-24T13:13:58;13.90;99.90
5940;DHT22;2995;-31.998;115.906;2023-07-24T13:16:29;14.00;99.90
5940;DHT22;2995;-31.998;115.906;2023-07-24T13:19:00;13.80;99.90
5940;DHT22;2995;-31.998;115.906;2023-07-24T13:21:31;13.70;99.90
5940;DHT22;2995;-31.998;115.906;2023-07-24T13:24:05;13.80;99.90
5940;DHT22;2995;-31.998;115.906;2023-07-24T13:26:36;13.70;99.90
5940;DHT22;2995;-31.998;115.906;2023-07-24T13:29:08;13.50;99.90
5940;DHT22;2995;-31.998;115.906;2023-07-24T13:31:39;13.50;99.90
5940;DHT22;2995;-31.998;115.906;2023-07-24T13:34:11;13.50;99.90
5940;DHT22;2995;-31.998;115.906;2023-07-24T13:36:42;13.60;99.90
5940;DHT22;2995;-31.998;115.906;2023-07-24T13:39:16;13.60;99.90
5940;DHT22;2995;-31.998;115.906;2023-07-24T13:41:47;13.50;99.90
5940;DHT22;2995;-31.998;115.906;2023-07-24T13:44:18;13.50;99.90
5940;DHT22;2995;-31.998;115.906;2023-07-24T13:46:49;13.50;99.90
5940;DHT22;2995;-31.998;115.906;2023-07-24T13:49:21;13.40;99.90
5940;DHT22;2995;-31.998;115.906;2023-07-24T13:51:52;13.30;99.90
5940;DHT22;2995;-31.998;115.906;2023-07-24T13:54:25;13.30;99.90
5940;DHT22;2995;-31.998;115.906;2023-07-24T13:56:57;13.20;99.90
5940;DHT22;2995;-31.998;115.906;2023-07-24T13:59:28;13.10;99.90
5940;DHT22;2995;-31.998;115.906;2023-07-24T14:01:59;12.90;99.90
5940;DHT22;2995;-31.998;115.906;2023-07-24T14:04:30;12.80;99.90
5940;DHT22;2995;-31.998;115.906;2023-07-24T14:07:01;12.80;99.90
5940;DHT22;2995;-31.998;115.906;2023-07-24T14:09:35;12.70;99.90
5940;DHT22;2995;-31.998;115.906;2023-07-24T14:12:06;12.70;99.90
5940;DHT22;2995;-31.998;115.906;2023-07-24T14:14:38;12.70;99.90
5940;DHT22;2995;-31.998;115.906;2023-07-24T14:17:09;12.60;99.90
5940;DHT22;2995;-31.998;115.906;2023-07-24T14:19:42;12.60;99.90
5940;DHT22;2995;-31.998;115.906;2023-07-24T14:22:13;12.70;99.90
5940;DHT22;2995;-31.998;115.906;2023-07-24T14:24:47;12.70;99.90
5940;DHT22;2995;-31.998;115.906;2023-07-24T14:27:18;12.70;99.90
5940;DHT22;2995;-31.998;115.906;2023-07-24T14:29:50;12.70;99.90
5940;DHT22;2995;-31.998;115.906;2023-07-24T14:32:21;12.60;99.90
5940;DHT22;2995;-31.998;115.906;2023-07-24T14:34:53;12.50;99.90
5940;DHT22;2995;-31.998;115.906;2023-07-24T14:37:24;12.40;99.90
5940;DHT22;2995;-31.998;115.906;2023-07-24T14:39:57;12.40;99.90
5940;DHT22;2995;-31.998;115.906;2023-07-24T14:42:28;12.50;99.90
5940;DHT22;2995;-31.998;115.906;2023-07-24T14:44:59;12.40;99.90
5940;DHT22;2995;-31.998;115.906;2023-07-24T14:47:31;12.40;99.90
5940;DHT22;2995;-31.998;115.906;2023-07-24T14:50:02;12.30;99.90
5940;DHT22;2995;-31.998;115.906;2023-07-24T14:52:34;12.20;99.90
5940;DHT22;2995;-31.998;115.906;2023-07-24T14:55:08;12.20;99.90
5940;DHT22;2995;-31.998;115.906;2023-07-24T14:57:39;12.20;99.90
5940;DHT22;2995;-31.998;115.906;2023-07-24T15:00:11;12.20;99.90
5940;DHT22;2995;-31.998;115.906;2023-07-24T15:02:44;12.20;99.90
5940;DHT22;2995;-31.998;115.906;2023-07-24T15:05:15;12.30;99.90
5940;DHT22;2995;-31.998;115.906;2023-07-24T15:07:46;12.40;99.90
5940;DHT22;2995;-31.998;115.906;2023-07-24T15:10:20;12.30;99.90
5940;DHT22;2995;-31.998;115.906;2023-07-24T15:12:51;12.40;99.90
5940;DHT22;2995;-31.998;115.906;2023-07-24T15:15:22;12.40;99.90
5940;DHT22;2995;-31.998;115.906;2023-07-24T15:17:53;12.50;99.90
5940;DHT22;2995;-31.998;115.906;2023-07-24T15:20:25;12.50;99.90
5940;DHT22;2995;-31.998;115.906;2023-07-24T15:22:56;12.30;99.90
5940;DHT22;2995;-31.998;115.906;2023-07-24T15:25:29;12.30;99.90
5940;DHT22;2995;-31.998;115.906;2023-07-24T15:28:00;12.50;99.90
5940;DHT22;2995;-31.998;115.906;2023-07-24T15:30:31;12.40;99.90
5940;DHT22;2995;-31.998;115.906;2023-07-24T15:33:03;12.40;99.90
5940;DHT22;2995;-31.998;115.906;2023-07-24T15:35:34;12.40;99.90
5940;DHT22;2995;-31.998;115.906;2023-07-24T15:38:05;12.30;99.90
5940;DHT22;2995;-31.998;115.906;2023-07-24T15:40:39;12.40;99.90
5940;DHT22;2995;-31.998;115.906;2023-07-24T15:43:10;12.50;99.90
5940;DHT22;2995;-31.998;115.906;2023-07-24T15:45:42;12.40;99.90